函館空港の過去48時間の天気

函館空港 (Hakodate)

現在時刻: 7/16 15:28 JST (7/16 06:28 UTC) 以下の時間は現地時間です。

過去48時間のMETAR気象情報
時間 風向 風速(m/s) 視程 気温(℃) 湿度(%) 気圧(hPa) 天気現象
16 15:00 南西 4 10km以上 21 88 1009
16 14:00 南西 5 10km以上 22 88 1009
16 13:00 南西 4 10km以上 22 88 1009
16 12:00 南西 4 10km以上 22 88 1009
16 11:00 南西 4 10km以上 21 88 1010
16 10:00 西南西 2 10km以上 21 94 1010
16 09:00 西 5 10km以上 24 83 1010
16 08:00 西南西 2 10km以上 23 89 1010
16 07:00 南西 3 10km以上 21 94 1009
16 06:37 2 10km以上 20 94 1009
16 06:21 不定 1 10km以上 21 94 1009
16 06:10 不定 1 10km以上 21 94 1009
15 20:24 西南西 4 5000m 19 100 1008 散在した霧 もや
15 20:00 西南西 4 5000m 19 100 1008 散在した霧 もや
15 19:39 西南西 5 3200m 19 100 1007 散在した霧 もや
15 19:29 西南西 5 2400m 19 100 1007 散在した霧 もや
15 19:16 西南西 5 900m 19 100 1007
15 19:06 西南西 5 700m 19 100 1007
15 19:00 西南西 5 600m 19 100 1007
15 18:50 西 6 300m 19 100 1007
15 18:37 西 6 300m 19 100 1007
15 18:29 西 6 900m 19 100 1007
15 18:19 西南西 6 4900m 19 100 1007 散在した霧 もや
15 18:00 西南西 7 5000m 20 94 1006 散在した霧 もや
15 17:34 西南西 5 5000m 20 94 1006 散在した霧 もや
15 17:00 西南西 6 5000m 20 94 1007 散在した霧 もや
15 16:43 西南西 7 5000m 20 94 1006 散在した霧 もや
15 16:00 西南西 6 5000m 21 94 1006 散在した霧 もや
15 15:00 西南西 7 10km以上 21 94 1006
15 14:00 南西 7 10km以上 21 94 1007
15 13:00 西南西 6 10km以上 22 88 1007
15 12:00 西南西 5 10km以上 22 88 1008
15 11:24 南西 8 10km以上 21 94 1008
15 11:06 3 10km以上 23 89 1008
15 11:00 南南東 3 10km以上 23 83 1008
15 10:22 不定 2 10km以上 22 88 1008
15 10:00 不定 1 10km以上 22 88 1008
15 09:15 東南東 2 9000m 21 94 1008 弱いしゅう雨
15 09:00 南南東 2 7000m 22 88 1008 部分霧
15 08:08 南南東 2 7000m 22 88 1009 部分霧
15 08:00 不定 1 7000m 21 94 1009 部分霧
15 07:00 不定 1 5000m 19 100 1009 散在した霧 もや
15 06:39 不定 1 5000m 19 94 1009 散在した霧 もや
15 06:25 不定 1 4500m 20 94 1009 散在した霧 もや
15 06:10 不定 1 4000m 19 100 1009 散在した霧 もや
14 20:00 東南東 5 8000m 21 88 1012
14 19:00 東南東 4 5000m 20 94 1012 散在した霧 もや
14 18:25 東南東 5 6000m 21 94 1012 散在した霧
14 18:00 東南東 6 5000m 21 94 1011 散在した霧 もや
14 17:33 東南東 6 7000m 21 94 1011 散在した霧
14 17:00 東南東 5 10km以上 21 94 1011 散在した霧
14 16:00 南東 4 10km以上 22 88 1011
RJCH 160600Z 22008KT 9999 FEW010 BKN020 BKN100 21/19 Q1009
RJCH 160500Z 23009KT 9999 FEW010 SCT020 BKN030 22/20 Q1009
RJCH 160400Z 22008KT 9999 FEW012 SCT020 BKN100 22/20 Q1009
RJCH 160300Z 23007KT 190V250 9999 FEW015 SCT030 BKN110 22/20 Q1009
RJCH 160200Z 22007KT 9999 FEW015 SCT030 BKN150 21/19 Q1010
RJCH 160100Z 24004KT 170V310 9999 FEW012 SCT025 BKN140 21/20 Q1010
RJCH 160000Z 26009KT 9999 FEW008 SCT030 BKN170 24/21 Q1010
RJCH 152300Z 25003KT 230V290 9999 FEW007 SCT025 BKN140 23/21 Q1010
RJCH 152200Z 22005KT 9999 FEW006 SCT025 BKN140 21/20 Q1009
RJCH 152137Z 19004KT 150V310 9999 FEW006 SCT009 BKN140 20/19 Q1009 RMK 1ST006 4ST009 7AC140 A2981
RJCH 152121Z VRB01KT 9999 FEW006 BKN009 BKN025 21/20 Q1009 RMK 1ST006 5ST009 6CU025 A2981
RJCH 152110Z VRB02KT 9999 FEW006 SCT009 BKN025 21/20 Q1009 RMK 1ST006 3ST009 5CU025 A2980
RJCH 151124Z 24007KT 5000 BCFG BR FEW001 SCT007 BKN012 19/19 Q1008 RMK 2ST001 4ST007 7ST012 A2978
RJCH 151100Z 24007KT 5000 BCFG BR SCT001 BKN007 BKN012 19/19 Q1008
RJCH 151039Z 24009KT 3200 BCFG BR FEW001 BKN005 BKN012 19/19 Q1007 RMK 2ST001 5ST005 7ST012 A2976
RJCH 151029Z 24010KT 210V270 2400 BCFG BR SCT001 BKN004 BKN010 19/19 Q1007 RMK 3ST001 5ST004 7ST010 A2976
RJCH 151016Z 24010KT 0900 R12/P2000N FG SCT002 BKN003 19/19 Q1007 RMK 4ST002 7ST003 A2976
RJCH 151006Z 24010KT 0700 R12/1200VP2000U FG VV001 19/19 Q1007 RMK A2976
RJCH 151000Z 25010KT 0600 R12/1100VP2000N FG VV002 19/19 Q1007
RJCH 150950Z 26011KT 0300 R12/0900V1800N FG VV001 19/19 Q1007 RMK A2976
RJCH 150937Z 26011KT 0300 R12/1000VP2000D FG VV001 19/19 Q1007 RMK A2975
RJCH 150929Z 26011KT 0900 R12/P2000N FG BKN001 BKN002 19/19 Q1007 RMK 5ST001 7ST002 A2975
RJCH 150919Z 25011KT 4900 BCFG BR SCT001 BKN002 BKN005 19/19 Q1007 RMK 3ST001 5ST002 7ST005 A2974
RJCH 150900Z 24013KT 5000 BCFG BR FEW001 SCT003 BKN020 20/19 Q1006
RJCH 150834Z 24009KT 5000 BCFG BR FEW001 SCT003 BKN020 20/19 Q1006 RMK 2ST001 4ST003 5CU020 A2973
RJCH 150800Z 25011KT 5000 BCFG BR SCT001 BKN003 BKN025 20/19 Q1007
RJCH 150743Z 24014KT 5000 BCFG BR SCT001 BKN003 BKN025 20/19 Q1006 RMK 3ST001 5ST003 6CU025 A2973
RJCH 150700Z 24012KT 5000 BCFG BR FEW001 SCT003 BKN070 21/20 Q1006
RJCH 150600Z 24013KT 9999 FEW004 SCT015 21/20 Q1006
RJCH 150500Z 23013KT 9999 FEW012 SCT030 BKN050 21/20 Q1007
RJCH 150400Z 25012KT 9999 FEW008 SCT025 BKN045 22/20 Q1007
RJCH 150300Z 24010KT 9999 FEW008 BKN025 BKN050 22/20 Q1008
RJCH 150224Z 23016KT 9999 FEW007 BKN010 BKN025 21/20 Q1008 RMK 2ST007 5ST010 6CU025 A2978
RJCH 150206Z 19006KT 100V240 9999 FEW005 BKN009 BKN010 23/21 Q1008 RMK 1ST005 5ST009 6ST010 A2978
RJCH 150200Z 16006KT 060V240 9999 FEW005 BKN010 BKN035 23/20 Q1008
RJCH 150122Z VRB03KT 9999 SCT006 BKN009 BKN010 22/20 Q1008 RMK 4ST006 5ST009 7ST010 A2979
RJCH 150100Z VRB02KT 9999 FEW001 BKN006 BKN009 22/20 Q1008
RJCH 150015Z 12004KT 040V160 9000 -SHRA FEW001 SCT008 BKN009 21/20 Q1008 RMK 1ST001 4ST008 5ST009 A2979
RJCH 150000Z 15003KT 100V200 7000 PRFG FEW001 SCT009 BKN010 22/20 Q1008
RJCH 142308Z 15003KT 120V190 7000 PRFG FEW001 BKN009 BKN010 22/20 Q1009 RMK 2ST001 5ST009 7ST010 A2981 3000SW-W FG SE-W
RJCH 142300Z VRB02KT 7000 PRFG FEW001 SCT009 BKN010 21/20 Q1009
RJCH 142200Z VRB01KT 5000 BCFG BR FEW001 SCT002 BKN012 19/19 Q1009
RJCH 142139Z VRB02KT 5000 BCFG BR FEW001 SCT002 BKN015 19/18 Q1009 RMK 2ST001 3ST002 7ST015 A2982
RJCH 142125Z VRB01KT 4500 BCFG BR FEW001 SCT003 BKN015 20/19 Q1009 RMK 2ST001 4ST003 7ST015 A2982
RJCH 142110Z VRB01KT 4000 BCFG BR FEW001 BKN003 BKN060 19/19 Q1009 RMK 2ST001 6ST003 7CU060 A2982
RJCH 141100Z 12010KT 8000 FEW005 BKN009 BKN070 21/19 Q1012
RJCH 141000Z 12008KT 5000 BCFG BR FEW001 SCT005 BKN007 20/19 Q1012
RJCH 140925Z 11009KT 6000 BCFG FEW001 SCT004 BKN005 21/20 Q1012 RMK 1ST001 4ST004 6ST005 A2988
RJCH 140900Z 11012KT 5000 BCFG BR FEW001 BKN004 BKN006 21/20 Q1011
RJCH 140833Z 11012KT 7000 BCFG FEW001 SCT004 BKN006 21/20 Q1011 RMK 1ST001 3ST004 5ST006 A2987
RJCH 140800Z 11009KT 9999 BCFG FEW001 SCT006 BKN030 21/20 Q1011
RJCH 140700Z 13008KT 9999 FEW003 SCT020 BKN/// 22/20 Q1011